Time;durP1;ratioP1;P1;durP2;ratioP2;P2;SDS_P1;SDS_P2;PMS_P1;PMS_P2;Temp;Humidity;BMP_temperature;BMP_pressure;BME280_temperature;BME280_humidity;BME280_pressure;Samples;Min_cycle;Max_cycle;Signal;HPM_P1;HPM_P2
2022/12/16 00:01:26;;;;;;;22.27;20.55;;;-8.40;99.90;;;;;;4986572;28;20034;-70
2022/12/16 00:03:55;;;;;;;23.23;21.05;;;-8.40;99.90;;;;;;4985434;28;20038;-70
2022/12/16 00:06:24;;;;;;;22.85;20.73;;;-8.50;99.90;;;;;;4992860;28;20046;-70
2022/12/16 00:08:51;;;;;;;22.33;20.58;;;-8.60;99.90;;;;;;4985349;28;20044;-70
2022/12/16 00:11:19;;;;;;;23.13;21.25;;;-8.70;99.90;;;;;;4987987;28;20048;-70
2022/12/16 00:13:46;;;;;;;19.42;17.90;;;-8.40;99.90;;;;;;4983704;28;20050;-70
2022/12/16 00:16:16;;;;;;;21.73;19.77;;;-8.20;99.90;;;;;;4984049;28;20037;-70
2022/12/16 00:18:44;;;;;;;20.25;18.20;;;-8.10;99.90;;;;;;4984949;28;20054;-70
2022/12/16 00:21:11;;;;;;;19.45;18.08;;;-8.00;99.90;;;;;;4990369;28;20647;-69
2022/12/16 00:23:40;;;;;;;19.70;17.80;;;-8.00;99.90;;;;;;4987682;28;20042;-70
2022/12/16 00:26:08;;;;;;;17.58;16.38;;;-7.90;99.90;;;;;;4981753;28;20068;-70
2022/12/16 00:28:35;;;;;;;16.40;15.32;;;-7.80;99.90;;;;;;4988904;28;20054;-70
2022/12/16 00:31:02;;;;;;;17.02;15.82;;;-7.70;99.90;;;;;;4966725;28;20042;-70
2022/12/16 00:33:30;;;;;;;16.75;15.48;;;-7.70;99.90;;;;;;4986586;28;20142;-70
2022/12/16 00:35:57;;;;;;;16.20;15.10;;;-7.60;99.90;;;;;;4990490;28;20260;-70
2022/12/16 00:38:25;;;;;;;17.65;16.25;;;-7.80;99.90;;;;;;4986443;28;20037;-71
2022/12/16 00:40:52;;;;;;;16.52;15.40;;;-7.90;99.90;;;;;;4984193;28;20053;-70
2022/12/16 00:43:19;;;;;;;16.95;15.55;;;-8.10;99.90;;;;;;4990613;28;20053;-70
2022/12/16 00:45:47;;;;;;;17.05;15.85;;;-7.90;99.90;;;;;;4979739;28;20046;-70
2022/12/16 00:48:14;;;;;;;17.08;15.93;;;-8.00;99.90;;;;;;4990544;28;20273;-70
2022/12/16 00:50:47;;;;;;;16.90;15.65;;;-8.10;99.90;;;;;;4984862;28;20046;-69
2022/12/16 00:53:14;;;;;;;17.02;16.00;;;-8.30;99.90;;;;;;4992769;28;20129;-71
2022/12/16 00:55:41;;;;;;;17.52;16.10;;;-8.10;99.90;;;;;;4984448;28;20058;-69
2022/12/16 00:58:08;;;;;;;17.23;16.25;;;-8.20;99.90;;;;;;4983271;28;20050;-70
2022/12/16 01:00:34;;;;;;;18.05;16.80;;;-8.20;99.90;;;;;;4986185;28;20042;-70
2022/12/16 01:03:01;;;;;;;18.23;16.88;;;-8.10;99.90;;;;;;4988611;28;20340;-70
2022/12/16 01:05:28;;;;;;;17.95;16.83;;;-8.20;99.90;;;;;;4980456;28;20038;-70
2022/12/16 01:07:56;;;;;;;17.85;16.95;;;-8.30;99.90;;;;;;4984236;28;21088;-71
2022/12/16 01:10:23;;;;;;;18.17;16.98;;;-8.40;99.90;;;;;;4989035;28;20363;-71
2022/12/16 01:12:50;;;;;;;18.42;17.35;;;-8.40;99.90;;;;;;4981124;28;20034;-71
2022/12/16 01:15:18;;;;;;;19.17;18.00;;;-8.60;99.90;;;;;;4984800;28;20528;-71
2022/12/16 01:17:45;;;;;;;19.25;17.90;;;-8.50;99.90;;;;;;4974047;28;20038;-70
2022/12/16 01:20:12;;;;;;;19.30;17.83;;;-8.40;99.90;;;;;;4987788;28;20068;-71
2022/12/16 01:22:39;;;;;;;19.05;17.40;;;-8.40;99.90;;;;;;4981265;28;20053;-70
2022/12/16 01:25:06;;;;;;;19.20;17.90;;;-8.50;99.90;;;;;;4988883;28;20420;-70
2022/12/16 01:27:32;;;;;;;19.70;18.27;;;-8.60;99.90;;;;;;4981254;28;20493;-70
2022/12/16 01:29:59;;;;;;;19.17;17.83;;;-8.70;99.90;;;;;;4984049;28;20054;-70
2022/12/16 01:32:26;;;;;;;18.83;17.73;;;-8.70;99.90;;;;;;4982396;28;20050;-68
2022/12/16 01:34:53;;;;;;;18.90;17.58;;;-8.80;99.90;;;;;;4988331;28;20042;-68
2022/12/16 01:37:22;;;;;;;19.50;17.92;;;-8.90;99.90;;;;;;4985829;28;20066;-68
2022/12/16 01:39:49;;;;;;;19.77;18.15;;;-8.90;99.90;;;;;;4986292;28;20042;-69
2022/12/16 01:42:19;;;;;;;19.45;18.23;;;-8.90;99.90;;;;;;4987146;28;20664;-69
2022/12/16 01:44:48;;;;;;;19.13;17.90;;;-8.90;99.90;;;;;;4983042;28;20046;-69
2022/12/16 01:47:26;;;;;;;19.00;18.00;;;-8.90;99.90;;;;;;4983610;28;20056;-69
2022/12/16 01:50:00;;;;;;;20.70;19.02;;;-8.90;99.90;;;;;;4988996;28;20054;-69
2022/12/16 01:52:35;;;;;;;19.77;18.33;;;-8.90;99.90;;;;;;4982338;28;20046;-69
2022/12/16 01:55:19;;;;;;;19.02;17.77;;;-8.70;99.90;;;;;;4991243;28;20069;-69
2022/12/16 01:58:06;;;;;;;18.08;17.05;;;-8.40;99.90;;;;;;4988998;28;20050;-69
2022/12/16 02:00:36;;;;;;;17.77;16.80;;;-8.30;99.90;;;;;;4991797;28;20084;-69
2022/12/16 02:03:03;;;;;;;17.30;16.20;;;-8.40;99.90;;;;;;4986154;28;20122;-68
2022/12/16 02:05:33;;;;;;;17.05;16.20;;;-8.40;99.90;;;;;;4972769;28;20123;-68
2022/12/16 02:08:01;;;;;;;16.67;15.90;;;-8.30;99.90;;;;;;4994771;28;20093;-68
2022/12/16 02:10:32;;;;;;;18.38;17.00;;;-8.50;99.90;;;;;;4992125;28;20412;-69
2022/12/16 02:13:24;;;;;;;17.77;16.40;;;-8.70;99.90;;;;;;4990313;28;20045;-69
2022/12/16 02:15:51;;;;;;;17.48;16.33;;;-8.70;99.90;;;;;;4986535;28;20104;-69
2022/12/16 02:18:48;;;;;;;18.25;16.85;;;-8.80;99.90;;;;;;4978402;28;20052;-68
2022/12/16 02:21:30;;;;;;;17.42;16.52;;;-8.60;99.90;;;;;;4918404;28;20533;-68
2022/12/16 02:24:25;;;;;;;17.13;16.23;;;-8.70;99.90;;;;;;4991514;28;20675;-71
2022/12/16 02:27:21;;;;;;;18.27;16.70;;;-8.70;99.90;;;;;;4988202;28;20065;-68
2022/12/16 02:30:03;;;;;;;17.60;16.52;;;-8.70;99.90;;;;;;4987889;28;20053;-69
2022/12/16 02:32:50;;;;;;;17.67;16.77;;;-8.80;99.90;;;;;;4983054;28;20046;-69
2022/12/16 02:35:40;;;;;;;17.67;16.77;;;-8.90;99.90;;;;;;4951595;28;20054;-69
2022/12/16 02:38:33;;;;;;;18.38;17.38;;;-9.00;99.90;;;;;;4971418;28;20416;-69
2022/12/16 02:41:03;;;;;;;19.92;18.73;;;-9.00;99.90;;;;;;4978128;28;20078;-68
2022/12/16 02:43:50;;;;;;;19.85;18.45;;;-9.10;99.90;;;;;;4977488;28;20516;-69
2022/12/16 02:46:22;;;;;;;20.08;18.48;;;-9.20;99.90;;;;;;4981005;28;20129;-68
2022/12/16 02:48:49;;;;;;;19.70;18.40;;;-9.10;99.90;;;;;;4982311;28;20061;-69
2022/12/16 02:51:17;;;;;;;19.33;18.23;;;-8.70;99.90;;;;;;4995067;28;20034;-70
2022/12/16 02:53:45;;;;;;;18.67;17.42;;;-8.60;99.90;;;;;;4990521;28;20527;-69
2022/12/16 02:56:38;;;;;;;18.45;17.30;;;-8.80;99.90;;;;;;4993732;28;20038;-69
2022/12/16 02:59:15;;;;;;;17.63;16.73;;;-8.80;99.90;;;;;;4987465;28;20044;-69
2022/12/16 03:01:51;;;;;;;18.60;17.60;;;-8.90;99.90;;;;;;4977149;28;20042;-69
2022/12/16 03:04:40;;;;;;;17.80;16.80;;;-8.90;99.90;;;;;;4991242;28;20038;-70
2022/12/16 03:07:12;;;;;;;18.08;17.00;;;-9.00;99.90;;;;;;4982137;28;20046;-70
2022/12/16 03:09:41;;;;;;;22.00;19.65;;;-9.10;99.90;;;;;;4988894;28;20058;-69
2022/12/16 03:12:12;;;;;;;19.15;17.80;;;-9.20;99.90;;;;;;4992566;28;20053;-70
2022/12/16 03:14:43;;;;;;;18.17;16.92;;;-9.20;99.90;;;;;;4983157;28;20058;-69
2022/12/16 03:17:11;;;;;;;18.73;17.30;;;-9.20;99.90;;;;;;4979540;28;20049;-70
2022/12/16 03:19:40;;;;;;;18.83;17.60;;;-9.20;99.90;;;;;;4990698;28;20034;-68
2022/12/16 03:22:15;;;;;;;18.77;17.52;;;-9.00;99.90;;;;;;4978259;28;20668;-69
2022/12/16 03:24:42;;;;;;;19.67;18.23;;;-8.80;99.90;;;;;;4986381;28;20053;-68
2022/12/16 03:27:12;;;;;;;20.73;18.80;;;-8.70;99.90;;;;;;4992309;28;20049;-69
2022/12/16 03:29:54;;;;;;;21.15;19.30;;;-8.60;99.90;;;;;;4988084;28;20492;-69
2022/12/16 03:32:27;;;;;;;21.13;19.25;;;-8.80;99.90;;;;;;4985575;28;20053;-69
2022/12/16 03:35:00;;;;;;;22.23;20.05;;;-8.80;99.90;;;;;;4988955;28;20519;-69
2022/12/16 03:37:32;;;;;;;22.13;20.25;;;-8.90;99.90;;;;;;4987924;28;20133;-69
2022/12/16 03:40:02;;;;;;;23.58;21.40;;;-8.90;99.90;;;;;;4989741;28;20038;-70
2022/12/16 03:42:29;;;;;;;25.00;22.35;;;-9.00;99.90;;;;;;4988625;28;20038;-70
2022/12/16 03:44:56;;;;;;;26.92;21.42;;;-9.10;99.90;;;;;;4984643;28;20516;-69
2022/12/16 03:47:26;;;;;;;22.67;20.65;;;-9.00;99.90;;;;;;4989223;28;20547;-69
2022/12/16 03:49:53;;;;;;;22.33;20.38;;;-9.00;99.90;;;;;;4986781;28;20042;-68
2022/12/16 03:52:20;;;;;;;22.73;20.40;;;-9.10;99.90;;;;;;4990855;28;20046;-69
2022/12/16 03:54:47;;;;;;;22.98;20.23;;;-8.90;99.90;;;;;;4988904;28;20088;-69
2022/12/16 03:57:13;;;;;;;22.27;20.70;;;-8.70;99.90;;;;;;5024366;23;20134;-70
2022/12/16 03:59:42;;;;;;;22.75;20.65;;;-8.60;99.90;;;;;;5009985;28;20180;-74
2022/12/16 04:02:09;;;;;;;21.73;19.83;;;-8.70;99.90;;;;;;5018788;28;20574;-73
2022/12/16 04:04:35;;;;;;;21.02;19.27;;;-8.80;99.90;;;;;;5016169;28;20283;-73
2022/12/16 04:07:20;;;;;;;21.08;19.17;;;-8.80;99.90;;;;;;5013341;28;20048;-73
2022/12/16 04:09:48;;;;;;;19.73;18.10;;;-8.60;99.90;;;;;;5010139;28;20059;-73
2022/12/16 04:26:08;;;;;;;17.90;16.20;;;-8.40;99.90;;;;;;5013667;28;20069;-73
2022/12/16 04:28:35;;;;;;;16.88;15.88;;;-8.30;99.90;;;;;;5016470;28;20497;-73
2022/12/16 04:31:02;;;;;;;17.77;16.67;;;-8.40;99.90;;;;;;5013558;28;20049;-72
